Sy Budlup — HBY3891 — position and weather

sailwx.info

Track history (hours):
 
Tides and Currents Weather Stations Pressure Air Temp Water Temp Dewpoint Dewpoint Depression Visibility Wind Speed Wind Dir Waves Ship Positions

Sy Budlup

Last reported at 2016-Apr-01 21:06 UTC. Time now 2016-May-29 13:29 UTC.
Position N 10°41' W 061°40'.
Warning: this ship's position is 57 days out of date.

Length 12 m.

Type: Sailing vessel. MMSI: 269432000.

Date/timePositionNaut miles runAvg speedWind from/ knotsBaromVisibWave heightAir tempDewpointWater temp
2016-Apr-01 21:06N 10°41' W 061°40'2 0.2
2016-Apr-01 12:09N 10°41' W 061°38'0 0.0
2016-Mar-31 17:28N 10°41' W 061°38'0 0.0
2016-Mar-31 15:19N 10°41' W 061°38'0 0.0
2016-Mar-31 14:16N 10°41' W 061°38'0 0.0
2016-Mar-31 13:28N 10°41' W 061°38'0 0.0
2016-Mar-31 12:22N 10°41' W 061°38'0 0.0
2016-Mar-30 12:10N 10°41' W 061°38'0 0.0
2016-Mar-29 21:22N 10°41' W 061°38'0 0.0
2016-Mar-29 20:31N 10°41' W 061°38'0 0.0
2016-Mar-29 19:16N 10°41' W 061°38'0 0.0
2016-Mar-29 15:08N 10°41' W 061°38'  
2016-Mar-26 21:24N 10°41' W 061°45'1 0.0
2016-Mar-25 15:31N 10°41' W 061°44'4 0.2
2016-Mar-24 15:28N 10°41' W 061°39'1 0.7
2016-Mar-24 13:30N 10°41' W 061°38'0 0.0
2016-Mar-24 12:12N 10°41' W 061°38'0 0.0
2016-Mar-24 11:33N 10°41' W 061°38'0 0.0
2016-Mar-24 10:30N 10°41' W 061°38'0 0.0
2016-Mar-24 09:27N 10°41' W 061°38'0 0.0
2016-Mar-24 08:30N 10°41' W 061°38'0 0.0
2016-Mar-24 07:33N 10°41' W 061°38'0 0.0
2016-Mar-24 06:30N 10°41' W 061°38'0 0.0
2016-Mar-24 05:27N 10°41' W 061°38'0 0.0
2016-Mar-24 04:33N 10°41' W 061°38'0 0.0
2016-Mar-24 03:21N 10°41' W 061°38'0 0.0
2016-Mar-24 02:27N 10°41' W 061°38'0 0.0
2016-Mar-24 01:33N 10°41' W 061°38'0 0.0
2016-Mar-24 00:09N 10°41' W 061°38'0 0.0
2016-Mar-23 20:27N 10°41' W 061°38'0 0.0
2016-Mar-23 19:33N 10°41' W 061°38'0 0.0
2016-Mar-23 16:27N 10°41' W 061°38'0 0.0
2016-Mar-23 15:15N 10°41' W 061°38'0 0.0
2016-Mar-23 14:33N 10°41' W 061°38'0 0.0
2016-Mar-23 13:27N 10°41' W 061°38'0 0.0
2016-Mar-23 12:12N 10°41' W 061°38'  
Track history (hours):
 
Tides and Currents Weather Stations Pressure Air Temp Water Temp Dewpoint Dewpoint Depression Visibility Wind Speed Wind Dir Waves Ship Positions

Sy Budlup

Last reported at 2016-Apr-01 21:06 UTC. Time now 2016-May-29 13:29 UTC.
Position N 10°41' W 061°40'.
Warning: this ship's position is 57 days out of date.

Length 12 m.

Type: Sailing vessel. MMSI: 269432000.

Date/timePositionNaut miles runAvg speedWind from/ knotsBaromVisibWave heightAir tempDewpointWater temp
2016-Apr-01 21:06N 10°41' W 061°40'2 0.2
2016-Apr-01 12:09N 10°41' W 061°38'0 0.0
2016-Mar-31 17:28N 10°41' W 061°38'0 0.0
2016-Mar-31 15:19N 10°41' W 061°38'0 0.0
2016-Mar-31 14:16N 10°41' W 061°38'0 0.0
2016-Mar-31 13:28N 10°41' W 061°38'0 0.0
2016-Mar-31 12:22N 10°41' W 061°38'0 0.0
2016-Mar-30 12:10N 10°41' W 061°38'0 0.0
2016-Mar-29 21:22N 10°41' W 061°38'0 0.0
2016-Mar-29 20:31N 10°41' W 061°38'0 0.0
2016-Mar-29 19:16N 10°41' W 061°38'0 0.0
2016-Mar-29 15:08N 10°41' W 061°38'  
2016-Mar-26 21:24N 10°41' W 061°45'1 0.0
2016-Mar-25 15:31N 10°41' W 061°44'4 0.2
2016-Mar-24 15:28N 10°41' W 061°39'1 0.7
2016-Mar-24 13:30N 10°41' W 061°38'0 0.0
2016-Mar-24 12:12N 10°41' W 061°38'0 0.0
2016-Mar-24 11:33N 10°41' W 061°38'0 0.0
2016-Mar-24 10:30N 10°41' W 061°38'0 0.0
2016-Mar-24 09:27N 10°41' W 061°38'0 0.0
2016-Mar-24 08:30N 10°41' W 061°38'0 0.0
2016-Mar-24 07:33N 10°41' W 061°38'0 0.0
2016-Mar-24 06:30N 10°41' W 061°38'0 0.0
2016-Mar-24 05:27N 10°41' W 061°38'0 0.0
2016-Mar-24 04:33N 10°41' W 061°38'0 0.0
2016-Mar-24 03:21N 10°41' W 061°38'0 0.0
2016-Mar-24 02:27N 10°41' W 061°38'0 0.0
2016-Mar-24 01:33N 10°41' W 061°38'0 0.0
2016-Mar-24 00:09N 10°41' W 061°38'0 0.0
2016-Mar-23 20:27N 10°41' W 061°38'0 0.0
2016-Mar-23 19:33N 10°41' W 061°38'0 0.0
2016-Mar-23 16:27N 10°41' W 061°38'0 0.0
2016-Mar-23 15:15N 10°41' W 061°38'0 0.0
2016-Mar-23 14:33N 10°41' W 061°38'0 0.0
2016-Mar-23 13:27N 10°41' W 061°38'0 0.0
2016-Mar-23 12:12N 10°41' W 061°38'  

Dump ship's entire track history